sensor_id;sensor_type;location;lat;lon;timestamp;temperature;humidity
16781;DHT22;8507;50.056;8.248;2023-10-09T00:01:50;15.20;99.90
16781;DHT22;8507;50.056;8.248;2023-10-09T00:04:16;15.00;99.90
16781;DHT22;8507;50.056;8.248;2023-10-09T00:06:43;14.80;99.90
16781;DHT22;8507;50.056;8.248;2023-10-09T00:09:10;15.00;99.90
16781;DHT22;8507;50.056;8.248;2023-10-09T00:11:55;15.10;99.90
16781;DHT22;8507;50.056;8.248;2023-10-09T00:14:27;15.10;99.90
16781;DHT22;8507;50.056;8.248;2023-10-09T00:16:55;15.20;99.90
16781;DHT22;8507;50.056;8.248;2023-10-09T00:19:43;15.20;99.90
16781;DHT22;8507;50.056;8.248;2023-10-09T00:22:09;15.20;99.90
16781;DHT22;8507;50.056;8.248;2023-10-09T00:24:55;15.10;99.90
16781;DHT22;8507;50.056;8.248;2023-10-09T00:27:41;15.20;99.90
16781;DHT22;8507;50.056;8.248;2023-10-09T00:30:09;15.20;99.90
16781;DHT22;8507;50.056;8.248;2023-10-09T00:32:36;15.10;99.90
16781;DHT22;8507;50.056;8.248;2023-10-09T00:35:03;15.10;99.90
16781;DHT22;8507;50.056;8.248;2023-10-09T00:37:48;15.20;99.90
16781;DHT22;8507;50.056;8.248;2023-10-09T00:40:16;15.20;99.90
16781;DHT22;8507;50.056;8.248;2023-10-09T00:42:49;14.90;99.90
16781;DHT22;8507;50.056;8.248;2023-10-09T00:45:14;15.00;99.90
16781;DHT22;8507;50.056;8.248;2023-10-09T00:47:51;15.10;99.90
16781;DHT22;8507;50.056;8.248;2023-10-09T00:50:17;15.10;99.90
16781;DHT22;8507;50.056;8.248;2023-10-09T00:52:49;15.10;99.90
16781;DHT22;8507;50.056;8.248;2023-10-09T00:55:20;15.10;99.90
16781;DHT22;8507;50.056;8.248;2023-10-09T00:58:06;15.20;99.90
16781;DHT22;8507;50.056;8.248;2023-10-09T01:00:38;15.20;99.90
16781;DHT22;8507;50.056;8.248;2023-10-09T01:03:11;15.00;99.90
16781;DHT22;8507;50.056;8.248;2023-10-09T01:08:20;15.00;99.90
16781;DHT22;8507;50.056;8.248;2023-10-09T01:10:59;15.00;99.90
16781;DHT22;8507;50.056;8.248;2023-10-09T01:13:35;15.00;99.90
16781;DHT22;8507;50.056;8.248;2023-10-09T01:16:22;15.10;99.90
16781;DHT22;8507;50.056;8.248;2023-10-09T01:18:55;15.20;99.90
16781;DHT22;8507;50.056;8.248;2023-10-09T01:21:24;15.20;99.90
16781;DHT22;8507;50.056;8.248;2023-10-09T01:23:51;15.20;99.90
16781;DHT22;8507;50.056;8.248;2023-10-09T01:26:47;15.20;99.90
16781;DHT22;8507;50.056;8.248;2023-10-09T01:29:19;15.10;99.90
16781;DHT22;8507;50.056;8.248;2023-10-09T01:31:52;15.10;99.90
16781;DHT22;8507;50.056;8.248;2023-10-09T01:34:25;15.20;99.90
16781;DHT22;8507;50.056;8.248;2023-10-09T01:37:08;15.10;99.90
16781;DHT22;8507;50.056;8.248;2023-10-09T01:39:40;15.10;99.90
16781;DHT22;8507;50.056;8.248;2023-10-09T01:42:08;15.10;99.90
16781;DHT22;8507;50.056;8.248;2023-10-09T01:44:34;15.10;99.90
16781;DHT22;8507;50.056;8.248;2023-10-09T01:47:04;15.10;99.90
16781;DHT22;8507;50.056;8.248;2023-10-09T01:49:36;15.00;99.90
16781;DHT22;8507;50.056;8.248;2023-10-09T01:52:11;15.00;99.90
16781;DHT22;8507;50.056;8.248;2023-10-09T01:54:42;14.90;99.90
16781;DHT22;8507;50.056;8.248;2023-10-09T01:57:12;14.90;99.90
16781;DHT22;8507;50.056;8.248;2023-10-09T01:59:42;14.90;99.90
16781;DHT22;8507;50.056;8.248;2023-10-09T02:02:13;14.70;99.90
16781;DHT22;8507;50.056;8.248;2023-10-09T02:04:56;14.70;99.90
16781;DHT22;8507;50.056;8.248;2023-10-09T02:07:31;14.60;99.90
16781;DHT22;8507;50.056;8.248;2023-10-09T02:10:09;14.70;99.90
16781;DHT22;8507;50.056;8.248;2023-10-09T02:12:47;14.60;99.90
16781;DHT22;8507;50.056;8.248;2023-10-09T02:15:16;14.60;99.90
16781;DHT22;8507;50.056;8.248;2023-10-09T02:18:01;14.60;99.90
16781;DHT22;8507;50.056;8.248;2023-10-09T02:20:41;14.70;99.90
16781;DHT22;8507;50.056;8.248;2023-10-09T02:23:07;14.70;99.90
16781;DHT22;8507;50.056;8.248;2023-10-09T02:25:41;14.80;99.90
16781;DHT22;8507;50.056;8.248;2023-10-09T02:28:10;14.80;99.90
16781;DHT22;8507;50.056;8.248;2023-10-09T02:30:45;14.50;99.90
16781;DHT22;8507;50.056;8.248;2023-10-09T02:33:15;14.60;99.90
16781;DHT22;8507;50.056;8.248;2023-10-09T02:35:56;14.60;99.90
16781;DHT22;8507;50.056;8.248;2023-10-09T02:38:25;14.60;99.90
16781;DHT22;8507;50.056;8.248;2023-10-09T02:40:51;14.60;99.90
16781;DHT22;8507;50.056;8.248;2023-10-09T02:43:46;14.70;99.90
16781;DHT22;8507;50.056;8.248;2023-10-09T02:46:21;14.80;99.90
16781;DHT22;8507;50.056;8.248;2023-10-09T02:48:55;14.80;99.90
16781;DHT22;8507;50.056;8.248;2023-10-09T02:51:23;14.80;99.90
16781;DHT22;8507;50.056;8.248;2023-10-09T02:53:55;14.80;99.90
16781;DHT22;8507;50.056;8.248;2023-10-09T02:56:22;14.70;99.90
16781;DHT22;8507;50.056;8.248;2023-10-09T02:58:53;14.70;99.90
16781;DHT22;8507;50.056;8.248;2023-10-09T03:01:19;14.50;99.90
16781;DHT22;8507;50.056;8.248;2023-10-09T03:03:44;14.60;99.90
16781;DHT22;8507;50.056;8.248;2023-10-09T03:06:14;14.60;99.90
16781;DHT22;8507;50.056;8.248;2023-10-09T03:08:44;14.60;99.90
16781;DHT22;8507;50.056;8.248;2023-10-09T03:11:13;14.60;99.90
16781;DHT22;8507;50.056;8.248;2023-10-09T03:13:44;14.70;99.90
16781;DHT22;8507;50.056;8.248;2023-10-09T03:16:11;14.80;99.90
16781;DHT22;8507;50.056;8.248;2023-10-09T03:18:52;14.70;99.90
16781;DHT22;8507;50.056;8.248;2023-10-09T03:21:19;14.70;99.90
16781;DHT22;8507;50.056;8.248;2023-10-09T03:23:49;14.70;99.90
16781;DHT22;8507;50.056;8.248;2023-10-09T03:26:20;14.70;99.90
16781;DHT22;8507;50.056;8.248;2023-10-09T03:28:47;14.80;99.90
16781;DHT22;8507;50.056;8.248;2023-10-09T03:31:13;14.70;99.90
16781;DHT22;8507;50.056;8.248;2023-10-09T03:33:41;14.80;99.90
16781;DHT22;8507;50.056;8.248;2023-10-09T03:36:07;14.80;99.90
16781;DHT22;8507;50.056;8.248;2023-10-09T03:38:39;14.90;99.90
16781;DHT22;8507;50.056;8.248;2023-10-09T03:41:05;14.90;99.90
16781;DHT22;8507;50.056;8.248;2023-10-09T03:43:38;14.90;99.90
16781;DHT22;8507;50.056;8.248;2023-10-09T03:46:05;14.90;99.90
16781;DHT22;8507;50.056;8.248;2023-10-09T03:48:37;14.90;99.90
16781;DHT22;8507;50.056;8.248;2023-10-09T03:51:02;15.00;99.90
16781;DHT22;8507;50.056;8.248;2023-10-09T03:53:38;14.90;99.90
16781;DHT22;8507;50.056;8.248;2023-10-09T03:56:07;14.90;99.90
16781;DHT22;8507;50.056;8.248;2023-10-09T03:58:45;15.00;99.90
16781;DHT22;8507;50.056;8.248;2023-10-09T04:01:13;15.00;99.90
16781;DHT22;8507;50.056;8.248;2023-10-09T04:03:48;15.00;99.90
16781;DHT22;8507;50.056;8.248;2023-10-09T04:06:14;15.00;99.90
16781;DHT22;8507;50.056;8.248;2023-10-09T04:08:43;15.00;99.90
16781;DHT22;8507;50.056;8.248;2023-10-09T04:11:13;15.00;99.90
16781;DHT22;8507;50.056;8.248;2023-10-09T04:13:45;15.00;99.90
16781;DHT22;8507;50.056;8.248;2023-10-09T04:16:15;15.00;99.90
16781;DHT22;8507;50.056;8.248;2023-10-09T04:19:00;15.00;99.90
16781;DHT22;8507;50.056;8.248;2023-10-09T04:21:32;15.00;99.90
16781;DHT22;8507;50.056;8.248;2023-10-09T04:24:07;14.90;99.90
16781;DHT22;8507;50.056;8.248;2023-10-09T04:26:43;14.90;99.90
16781;DHT22;8507;50.056;8.248;2023-10-09T04:31:52;14.30;99.90
16781;DHT22;8507;50.056;8.248;2023-10-09T04:34:18;14.40;99.90
16781;DHT22;8507;50.056;8.248;2023-10-09T04:36:48;14.30;99.90
16781;DHT22;8507;50.056;8.248;2023-10-09T04:39:22;14.10;99.90
16781;DHT22;8507;50.056;8.248;2023-10-09T04:41:57;14.20;99.90
16781;DHT22;8507;50.056;8.248;2023-10-09T04:44:42;14.20;99.90
16781;DHT22;8507;50.056;8.248;2023-10-09T04:47:45;14.00;99.90
16781;DHT22;8507;50.056;8.248;2023-10-09T04:50:24;14.00;99.90
16781;DHT22;8507;50.056;8.248;2023-10-09T04:52:55;14.10;99.90
16781;DHT22;8507;50.056;8.248;2023-10-09T04:55:21;14.20;99.90
16781;DHT22;8507;50.056;8.248;2023-10-09T04:57:52;14.30;99.90
16781;DHT22;8507;50.056;8.248;2023-10-09T05:00:33;14.30;99.90
16781;DHT22;8507;50.056;8.248;2023-10-09T05:03:01;14.30;99.90
16781;DHT22;8507;50.056;8.248;2023-10-09T05:05:32;14.30;99.90
16781;DHT22;8507;50.056;8.248;2023-10-09T05:11:00;14.40;99.90
16781;DHT22;8507;50.056;8.248;2023-10-09T05:16:17;14.50;99.90
16781;DHT22;8507;50.056;8.248;2023-10-09T05:19:03;14.50;99.90
16781;DHT22;8507;50.056;8.248;2023-10-09T05:21:36;14.30;99.90
16781;DHT22;8507;50.056;8.248;2023-10-09T05:24:11;14.10;99.90
16781;DHT22;8507;50.056;8.248;2023-10-09T05:26:47;14.00;99.90
16781;DHT22;8507;50.056;8.248;2023-10-09T05:29:14;13.90;99.90
16781;DHT22;8507;50.056;8.248;2023-10-09T05:32:01;14.10;99.90
16781;DHT22;8507;50.056;8.248;2023-10-09T05:34:30;14.00;99.90
16781;DHT22;8507;50.056;8.248;2023-10-09T05:37:14;14.10;99.90
16781;DHT22;8507;50.056;8.248;2023-10-09T05:39:46;14.20;99.90
16781;DHT22;8507;50.056;8.248;2023-10-09T05:42:35;14.20;99.90
16781;DHT22;8507;50.056;8.248;2023-10-09T05:47:49;14.30;99.90
16781;DHT22;8507;50.056;8.248;2023-10-09T05:50:35;14.00;99.90
16781;DHT22;8507;50.056;8.248;2023-10-09T05:53:24;13.90;99.90
16781;DHT22;8507;50.056;8.248;2023-10-09T05:56:08;13.80;99.90
16781;DHT22;8507;50.056;8.248;2023-10-09T05:58:52;13.90;99.90
16781;DHT22;8507;50.056;8.248;2023-10-09T06:01:36;14.00;99.90
16781;DHT22;8507;50.056;8.248;2023-10-09T06:04:20;14.10;99.90
16781;DHT22;8507;50.056;8.248;2023-10-09T06:06:46;14.10;99.90
16781;DHT22;8507;50.056;8.248;2023-10-09T06:09:15;14.10;99.90
16781;DHT22;8507;50.056;8.248;2023-10-09T06:11:45;14.20;99.90
16781;DHT22;8507;50.056;8.248;2023-10-09T06:14:24;14.10;99.90
16781;DHT22;8507;50.056;8.248;2023-10-09T06:16:57;14.10;99.90
16781;DHT22;8507;50.056;8.248;2023-10-09T06:19:24;14.20;99.90
16781;DHT22;8507;50.056;8.248;2023-10-09T06:21:54;14.30;99.90
16781;DHT22;8507;50.056;8.248;2023-10-09T06:24:39;14.40;99.90
16781;DHT22;8507;50.056;8.248;2023-10-09T06:27:12;14.30;99.90
16781;DHT22;8507;50.056;8.248;2023-10-09T06:29:41;14.30;99.90
16781;DHT22;8507;50.056;8.248;2023-10-09T06:32:11;14.30;99.90
16781;DHT22;8507;50.056;8.248;2023-10-09T06:34:47;14.40;99.90
16781;DHT22;8507;50.056;8.248;2023-10-09T06:37:22;14.40;99.90
16781;DHT22;8507;50.056;8.248;2023-10-09T06:39:49;14.30;99.90
16781;DHT22;8507;50.056;8.248;2023-10-09T06:42:24;14.40;99.90
16781;DHT22;8507;50.056;8.248;2023-10-09T06:45:15;14.50;99.90
16781;DHT22;8507;50.056;8.248;2023-10-09T06:47:49;14.70;99.90
16781;DHT22;8507;50.056;8.248;2023-10-09T06:50:23;14.80;99.90
16781;DHT22;8507;50.056;8.248;2023-10-09T06:52:52;14.90;99.90
16781;DHT22;8507;50.056;8.248;2023-10-09T06:55:37;14.90;99.90
16781;DHT22;8507;50.056;8.248;2023-10-09T06:58:20;15.00;99.90
16781;DHT22;8507;50.056;8.248;2023-10-09T07:00:54;15.00;99.90
16781;DHT22;8507;50.056;8.248;2023-10-09T07:03:23;15.00;99.90
16781;DHT22;8507;50.056;8.248;2023-10-09T07:06:10;15.10;99.90
16781;DHT22;8507;50.056;8.248;2023-10-09T07:08:56;15.10;99.90
16781;DHT22;8507;50.056;8.248;2023-10-09T07:11:34;15.10;99.90
16781;DHT22;8507;50.056;8.248;2023-10-09T07:14:24;15.20;99.90
16781;DHT22;8507;50.056;8.248;2023-10-09T07:17:00;15.30;99.90
16781;DHT22;8507;50.056;8.248;2023-10-09T07:19:30;15.30;99.90
16781;DHT22;8507;50.056;8.248;2023-10-09T07:21:59;15.40;99.90
16781;DHT22;8507;50.056;8.248;2023-10-09T07:24:32;15.30;99.90
16781;DHT22;8507;50.056;8.248;2023-10-09T07:27:09;15.40;99.90
16781;DHT22;8507;50.056;8.248;2023-10-09T07:29:39;15.50;99.90
16781;DHT22;8507;50.056;8.248;2023-10-09T07:32:15;15.60;99.90
16781;DHT22;8507;50.056;8.248;2023-10-09T07:34:46;15.70;99.90
16781;DHT22;8507;50.056;8.248;2023-10-09T07:37:22;15.80;99.90
16781;DHT22;8507;50.056;8.248;2023-10-09T07:39:50;15.90;99.90
16781;DHT22;8507;50.056;8.248;2023-10-09T07:42:25;15.60;99.90
16781;DHT22;8507;50.056;8.248;2023-10-09T07:45:12;15.40;99.90
16781;DHT22;8507;50.056;8.248;2023-10-09T07:47:58;15.30;99.90
16781;DHT22;8507;50.056;8.248;2023-10-09T07:50:38;15.30;99.90
16781;DHT22;8507;50.056;8.248;2023-10-09T07:53:07;15.50;99.90
16781;DHT22;8507;50.056;8.248;2023-10-09T07:55:51;15.60;99.90
16781;DHT22;8507;50.056;8.248;2023-10-09T07:58:24;15.90;99.90
16781;DHT22;8507;50.056;8.248;2023-10-09T08:00:57;16.20;99.90
16781;DHT22;8507;50.056;8.248;2023-10-09T08:03:36;16.50;99.90
16781;DHT22;8507;50.056;8.248;2023-10-09T08:06:03;16.70;99.90
16781;DHT22;8507;50.056;8.248;2023-10-09T08:08:47;16.90;99.90
16781;DHT22;8507;50.056;8.248;2023-10-09T08:11:29;17.00;99.90
16781;DHT22;8507;50.056;8.248;2023-10-09T08:14:25;17.10;99.90
16781;DHT22;8507;50.056;8.248;2023-10-09T08:16:59;17.20;99.90
16781;DHT22;8507;50.056;8.248;2023-10-09T08:19:47;17.30;99.90
16781;DHT22;8507;50.056;8.248;2023-10-09T08:22:28;17.40;99.90
16781;DHT22;8507;50.056;8.248;2023-10-09T08:24:54;17.50;99.90
16781;DHT22;8507;50.056;8.248;2023-10-09T08:27:27;17.60;99.90
16781;DHT22;8507;50.056;8.248;2023-10-09T08:30:12;17.70;99.90
16781;DHT22;8507;50.056;8.248;2023-10-09T08:32:38;17.70;99.90
16781;DHT22;8507;50.056;8.248;2023-10-09T08:35:09;17.70;99.90
16781;DHT22;8507;50.056;8.248;2023-10-09T08:37:56;17.80;99.90
16781;DHT22;8507;50.056;8.248;2023-10-09T08:40:35;17.80;99.90
16781;DHT22;8507;50.056;8.248;2023-10-09T08:43:09;17.80;99.90
16781;DHT22;8507;50.056;8.248;2023-10-09T08:45:39;17.70;99.90
16781;DHT22;8507;50.056;8.248;2023-10-09T08:48:07;17.60;99.90
16781;DHT22;8507;50.056;8.248;2023-10-09T08:50:32;17.70;99.90
16781;DHT22;8507;50.056;8.248;2023-10-09T08:53:00;17.70;99.90
16781;DHT22;8507;50.056;8.248;2023-10-09T08:55:28;17.80;99.90
16781;DHT22;8507;50.056;8.248;2023-10-09T08:57:54;17.70;99.90
16781;DHT22;8507;50.056;8.248;2023-10-09T09:00:23;17.80;99.90
16781;DHT22;8507;50.056;8.248;2023-10-09T09:02:59;17.90;99.90
16781;DHT22;8507;50.056;8.248;2023-10-09T09:05:28;17.90;99.90
16781;DHT22;8507;50.056;8.248;2023-10-09T09:07:54;17.90;99.90
16781;DHT22;8507;50.056;8.248;2023-10-09T09:10:28;18.00;99.90
16781;DHT22;8507;50.056;8.248;2023-10-09T09:13:14;18.00;99.90
16781;DHT22;8507;50.056;8.248;2023-10-09T09:15:47;18.10;99.90
16781;DHT22;8507;50.056;8.248;2023-10-09T09:18:12;18.20;99.90
16781;DHT22;8507;50.056;8.248;2023-10-09T09:20:42;18.20;99.90
16781;DHT22;8507;50.056;8.248;2023-10-09T09:23:12;18.20;99.90
16781;DHT22;8507;50.056;8.248;2023-10-09T09:25:46;18.20;99.90
16781;DHT22;8507;50.056;8.248;2023-10-09T09:28:14;18.20;99.90
16781;DHT22;8507;50.056;8.248;2023-10-09T09:30:46;18.20;99.90
16781;DHT22;8507;50.056;8.248;2023-10-09T09:33:27;18.30;99.90
16781;DHT22;8507;50.056;8.248;2023-10-09T09:36:05;18.40;99.90
16781;DHT22;8507;50.056;8.248;2023-10-09T09:38:33;18.40;99.90
16781;DHT22;8507;50.056;8.248;2023-10-09T09:41:17;18.40;99.90
16781;DHT22;8507;50.056;8.248;2023-10-09T09:43:59;18.50;99.90
16781;DHT22;8507;50.056;8.248;2023-10-09T09:46:34;18.60;99.90
16781;DHT22;8507;50.056;8.248;2023-10-09T09:49:06;18.60;99.90
16781;DHT22;8507;50.056;8.248;2023-10-09T09:51:42;18.60;99.90
16781;DHT22;8507;50.056;8.248;2023-10-09T09:54:10;18.70;99.90
16781;DHT22;8507;50.056;8.248;2023-10-09T09:56:44;18.70;99.90
16781;DHT22;8507;50.056;8.248;2023-10-09T09:59:17;18.80;99.90
16781;DHT22;8507;50.056;8.248;2023-10-09T10:01:49;18.70;99.90
16781;DHT22;8507;50.056;8.248;2023-10-09T10:04:29;18.80;99.90
16781;DHT22;8507;50.056;8.248;2023-10-09T10:07:00;18.90;99.90
16781;DHT22;8507;50.056;8.248;2023-10-09T10:09:39;19.00;99.90
16781;DHT22;8507;50.056;8.248;2023-10-09T10:12:06;19.10;99.90
16781;DHT22;8507;50.056;8.248;2023-10-09T10:14:56;19.20;99.90
16781;DHT22;8507;50.056;8.248;2023-10-09T10:17:32;19.30;99.90
16781;DHT22;8507;50.056;8.248;2023-10-09T10:20:17;19.20;99.90
16781;DHT22;8507;50.056;8.248;2023-10-09T10:22:44;19.40;99.90
16781;DHT22;8507;50.056;8.248;2023-10-09T10:28:17;19.60;99.90
16781;DHT22;8507;50.056;8.248;2023-10-09T10:31:01;19.70;99.90
16781;DHT22;8507;50.056;8.248;2023-10-09T10:36:25;20.20;99.90
16781;DHT22;8507;50.056;8.248;2023-10-09T10:39:01;20.40;99.90
16781;DHT22;8507;50.056;8.248;2023-10-09T10:41:30;20.50;99.90
16781;DHT22;8507;50.056;8.248;2023-10-09T10:44:02;20.70;99.90
16781;DHT22;8507;50.056;8.248;2023-10-09T10:46:59;20.80;99.90
16781;DHT22;8507;50.056;8.248;2023-10-09T10:49:25;20.60;99.90
16781;DHT22;8507;50.056;8.248;2023-10-09T10:52:04;20.60;99.90
16781;DHT22;8507;50.056;8.248;2023-10-09T10:54:44;20.90;99.90
16781;DHT22;8507;50.056;8.248;2023-10-09T10:57:19;21.20;99.90
16781;DHT22;8507;50.056;8.248;2023-10-09T10:59:45;21.20;99.90
16781;DHT22;8507;50.056;8.248;2023-10-09T11:02:11;20.70;99.90
16781;DHT22;8507;50.056;8.248;2023-10-09T11:04:38;20.90;99.90
16781;DHT22;8507;50.056;8.248;2023-10-09T11:07:10;20.70;99.90
16781;DHT22;8507;50.056;8.248;2023-10-09T11:09:57;20.60;99.90
16781;DHT22;8507;50.056;8.248;2023-10-09T11:12:51;20.20;99.90
16781;DHT22;8507;50.056;8.248;2023-10-09T11:15:30;20.50;99.90
16781;DHT22;8507;50.056;8.248;2023-10-09T11:18:07;21.20;99.90
16781;DHT22;8507;50.056;8.248;2023-10-09T11:20:52;21.60;99.90
16781;DHT22;8507;50.056;8.248;2023-10-09T11:23:31;22.00;99.90
16781;DHT22;8507;50.056;8.248;2023-10-09T11:26:01;22.10;99.90
16781;DHT22;8507;50.056;8.248;2023-10-09T11:28:45;22.30;99.90
16781;DHT22;8507;50.056;8.248;2023-10-09T11:31:23;22.40;99.90
16781;DHT22;8507;50.056;8.248;2023-10-09T11:33:52;22.60;99.90
16781;DHT22;8507;50.056;8.248;2023-10-09T11:36:22;22.70;99.90
16781;DHT22;8507;50.056;8.248;2023-10-09T11:38:58;22.60;99.90
16781;DHT22;8507;50.056;8.248;2023-10-09T11:41:42;22.70;99.90
16781;DHT22;8507;50.056;8.248;2023-10-09T11:44:09;22.80;99.90
16781;DHT22;8507;50.056;8.248;2023-10-09T11:46:57;22.80;99.90
16781;DHT22;8507;50.056;8.248;2023-10-09T11:49:23;22.80;99.90
16781;DHT22;8507;50.056;8.248;2023-10-09T11:52:09;23.00;99.90
16781;DHT22;8507;50.056;8.248;2023-10-09T11:54:35;23.20;99.90
16781;DHT22;8507;50.056;8.248;2023-10-09T11:57:01;23.40;99.90
16781;DHT22;8507;50.056;8.248;2023-10-09T11:59:28;23.40;99.90
16781;DHT22;8507;50.056;8.248;2023-10-09T12:01:55;23.50;99.90
16781;DHT22;8507;50.056;8.248;2023-10-09T12:04:26;23.40;99.90
16781;DHT22;8507;50.056;8.248;2023-10-09T12:06:58;23.20;99.90
16781;DHT22;8507;50.056;8.248;2023-10-09T12:09:32;23.20;99.90
16781;DHT22;8507;50.056;8.248;2023-10-09T12:12:01;23.30;99.90
16781;DHT22;8507;50.056;8.248;2023-10-09T12:14:27;23.30;99.90
16781;DHT22;8507;50.056;8.248;2023-10-09T12:17:01;23.30;99.90
16781;DHT22;8507;50.056;8.248;2023-10-09T12:19:34;23.40;99.90
16781;DHT22;8507;50.056;8.248;2023-10-09T12:22:01;23.40;99.90
16781;DHT22;8507;50.056;8.248;2023-10-09T12:24:32;23.50;99.90
16781;DHT22;8507;50.056;8.248;2023-10-09T12:27:01;23.50;99.90
16781;DHT22;8507;50.056;8.248;2023-10-09T12:29:26;23.30;99.90
16781;DHT22;8507;50.056;8.248;2023-10-09T12:31:58;23.30;99.90
16781;DHT22;8507;50.056;8.248;2023-10-09T12:34:25;23.20;99.90
16781;DHT22;8507;50.056;8.248;2023-10-09T12:36:53;23.10;99.90
16781;DHT22;8507;50.056;8.248;2023-10-09T12:39:19;23.10;99.90
16781;DHT22;8507;50.056;8.248;2023-10-09T12:41:45;23.00;99.90
16781;DHT22;8507;50.056;8.248;2023-10-09T12:44:10;23.00;99.90
16781;DHT22;8507;50.056;8.248;2023-10-09T12:46:41;23.00;99.90
16781;DHT22;8507;50.056;8.248;2023-10-09T12:49:06;23.10;99.90
16781;DHT22;8507;50.056;8.248;2023-10-09T12:51:32;23.10;99.90
16781;DHT22;8507;50.056;8.248;2023-10-09T12:53:58;23.10;99.90
16781;DHT22;8507;50.056;8.248;2023-10-09T12:56:24;23.20;99.90
16781;DHT22;8507;50.056;8.248;2023-10-09T12:59:01;23.20;99.90
16781;DHT22;8507;50.056;8.248;2023-10-09T13:01:28;23.20;99.90
16781;DHT22;8507;50.056;8.248;2023-10-09T13:04:11;23.20;99.90
16781;DHT22;8507;50.056;8.248;2023-10-09T13:06:40;23.20;99.90
16781;DHT22;8507;50.056;8.248;2023-10-09T13:09:13;23.40;99.90
16781;DHT22;8507;50.056;8.248;2023-10-09T13:11:42;23.20;99.90
16781;DHT22;8507;50.056;8.248;2023-10-09T13:14:09;23.30;99.90
16781;DHT22;8507;50.056;8.248;2023-10-09T13:16:47;23.40;99.90
16781;DHT22;8507;50.056;8.248;2023-10-09T13:19:15;23.40;99.90
16781;DHT22;8507;50.056;8.248;2023-10-09T13:21:43;23.50;99.90
16781;DHT22;8507;50.056;8.248;2023-10-09T13:24:09;23.50;99.90
16781;DHT22;8507;50.056;8.248;2023-10-09T13:26:49;23.40;99.90
16781;DHT22;8507;50.056;8.248;2023-10-09T13:29:17;23.50;99.90
16781;DHT22;8507;50.056;8.248;2023-10-09T13:31:48;23.60;99.90
16781;DHT22;8507;50.056;8.248;2023-10-09T13:34:14;23.60;99.90
16781;DHT22;8507;50.056;8.248;2023-10-09T13:36:43;23.50;99.90
16781;DHT22;8507;50.056;8.248;2023-10-09T13:39:24;23.40;99.90
16781;DHT22;8507;50.056;8.248;2023-10-09T13:41:57;23.50;99.90
16781;DHT22;8507;50.056;8.248;2023-10-09T13:44:27;23.60;99.90
16781;DHT22;8507;50.056;8.248;2023-10-09T13:46:54;23.60;99.90
16781;DHT22;8507;50.056;8.248;2023-10-09T13:49:20;23.60;99.90
16781;DHT22;8507;50.056;8.248;2023-10-09T13:51:49;23.60;99.90
16781;DHT22;8507;50.056;8.248;2023-10-09T13:54:16;23.60;99.90
16781;DHT22;8507;50.056;8.248;2023-10-09T13:56:49;23.50;99.90
16781;DHT22;8507;50.056;8.248;2023-10-09T13:59:22;23.50;99.90
16781;DHT22;8507;50.056;8.248;2023-10-09T14:01:50;23.50;99.90
16781;DHT22;8507;50.056;8.248;2023-10-09T14:04:16;23.50;99.90
16781;DHT22;8507;50.056;8.248;2023-10-09T14:06:45;23.50;99.90
16781;DHT22;8507;50.056;8.248;2023-10-09T14:09:11;23.50;99.90
16781;DHT22;8507;50.056;8.248;2023-10-09T14:11:37;23.50;99.90
16781;DHT22;8507;50.056;8.248;2023-10-09T14:14:05;23.50;99.90
16781;DHT22;8507;50.056;8.248;2023-10-09T14:16:38;23.50;99.90
16781;DHT22;8507;50.056;8.248;2023-10-09T14:19:09;23.50;99.90
16781;DHT22;8507;50.056;8.248;2023-10-09T14:21:38;23.50;99.90
16781;DHT22;8507;50.056;8.248;2023-10-09T14:24:06;23.50;99.90
16781;DHT22;8507;50.056;8.248;2023-10-09T14:26:41;23.30;99.90
16781;DHT22;8507;50.056;8.248;2023-10-09T14:29:07;23.30;99.90
16781;DHT22;8507;50.056;8.248;2023-10-09T14:31:33;23.30;99.90
16781;DHT22;8507;50.056;8.248;2023-10-09T14:34:04;23.20;99.90
16781;DHT22;8507;50.056;8.248;2023-10-09T14:36:30;23.20;99.90
16781;DHT22;8507;50.056;8.248;2023-10-09T14:38:59;23.20;99.90
16781;DHT22;8507;50.056;8.248;2023-10-09T14:41:26;23.00;99.90
16781;DHT22;8507;50.056;8.248;2023-10-09T14:43:52;22.90;99.90
16781;DHT22;8507;50.056;8.248;2023-10-09T14:46:18;22.90;99.90
16781;DHT22;8507;50.056;8.248;2023-10-09T14:48:52;22.80;99.90
16781;DHT22;8507;50.056;8.248;2023-10-09T14:51:20;22.80;99.90
16781;DHT22;8507;50.056;8.248;2023-10-09T14:53:55;22.80;99.90
16781;DHT22;8507;50.056;8.248;2023-10-09T14:56:23;22.70;99.90
16781;DHT22;8507;50.056;8.248;2023-10-09T14:58:55;22.60;99.90
16781;DHT22;8507;50.056;8.248;2023-10-09T15:01:22;22.40;99.90
16781;DHT22;8507;50.056;8.248;2023-10-09T15:03:50;22.30;99.90
16781;DHT22;8507;50.056;8.248;2023-10-09T15:06:18;22.20;99.90
16781;DHT22;8507;50.056;8.248;2023-10-09T15:08:44;22.10;99.90
16781;DHT22;8507;50.056;8.248;2023-10-09T15:11:10;22.10;99.90
16781;DHT22;8507;50.056;8.248;2023-10-09T15:13:36;22.00;99.90
16781;DHT22;8507;50.056;8.248;2023-10-09T15:16:05;22.00;99.90
16781;DHT22;8507;50.056;8.248;2023-10-09T15:18:30;21.90;99.90
16781;DHT22;8507;50.056;8.248;2023-10-09T15:20:59;21.80;99.90
16781;DHT22;8507;50.056;8.248;2023-10-09T15:23:25;21.70;99.90
16781;DHT22;8507;50.056;8.248;2023-10-09T15:25:51;21.60;99.90
16781;DHT22;8507;50.056;8.248;2023-10-09T15:28:22;21.50;99.90
16781;DHT22;8507;50.056;8.248;2023-10-09T15:30:48;21.50;99.90
16781;DHT22;8507;50.056;8.248;2023-10-09T15:33:15;21.60;99.90
16781;DHT22;8507;50.056;8.248;2023-10-09T15:35:43;21.60;99.90
16781;DHT22;8507;50.056;8.248;2023-10-09T15:38:12;21.60;99.90
16781;DHT22;8507;50.056;8.248;2023-10-09T15:40:39;21.60;99.90
16781;DHT22;8507;50.056;8.248;2023-10-09T15:43:07;21.50;99.90
16781;DHT22;8507;50.056;8.248;2023-10-09T15:45:41;21.50;99.90
16781;DHT22;8507;50.056;8.248;2023-10-09T15:48:07;21.50;99.90
16781;DHT22;8507;50.056;8.248;2023-10-09T15:50:32;21.50;99.90
16781;DHT22;8507;50.056;8.248;2023-10-09T15:53:00;21.50;99.90
16781;DHT22;8507;50.056;8.248;2023-10-09T15:55:26;21.60;99.90
16781;DHT22;8507;50.056;8.248;2023-10-09T15:57:52;21.60;99.90
16781;DHT22;8507;50.056;8.248;2023-10-09T16:00:20;21.70;99.90
16781;DHT22;8507;50.056;8.248;2023-10-09T16:02:49;21.70;99.90
16781;DHT22;8507;50.056;8.248;2023-10-09T16:05:19;21.80;99.90
16781;DHT22;8507;50.056;8.248;2023-10-09T16:07:45;21.90;99.90
16781;DHT22;8507;50.056;8.248;2023-10-09T16:10:10;21.90;99.90
16781;DHT22;8507;50.056;8.248;2023-10-09T16:12:38;22.00;99.90
16781;DHT22;8507;50.056;8.248;2023-10-09T16:15:04;21.90;99.90
16781;DHT22;8507;50.056;8.248;2023-10-09T16:17:33;21.90;99.90
16781;DHT22;8507;50.056;8.248;2023-10-09T16:20:00;21.90;99.90
16781;DHT22;8507;50.056;8.248;2023-10-09T16:22:29;21.90;99.90
16781;DHT22;8507;50.056;8.248;2023-10-09T16:24:58;21.80;99.90
16781;DHT22;8507;50.056;8.248;2023-10-09T16:27:25;21.80;99.90
16781;DHT22;8507;50.056;8.248;2023-10-09T16:29:52;21.80;99.90
16781;DHT22;8507;50.056;8.248;2023-10-09T16:32:18;21.70;99.90
16781;DHT22;8507;50.056;8.248;2023-10-09T16:34:50;21.70;99.90
16781;DHT22;8507;50.056;8.248;2023-10-09T16:37:16;21.70;99.90
16781;DHT22;8507;50.056;8.248;2023-10-09T16:39:56;21.60;99.90